KSLN

Salina Regional Airport

Salina, Kansas, USA
METAR KSLN 162253Z 35006KT 10SM CLR 09/02 A3029 RMK AO2 SLP265 T00940017
Observed Flight Rules
Dec-16 @ 22:53 UTC (17 minutes ago) Visual Flight Rules
Wind Visibility Clouds
350° at 6 knots 10 miles
  • Clear skies
Temperatures Readings
Current 9°C / 48°F
Dewpoint 2°C / 36°F
Humidity 62%
Altimeter 30.29" Hg
Pressure 1026.5 hPa
Elevation 385
METAR KSLN 162253Z 35006KT 10SM CLR 09/02 A3029 RMK AO2 SLP265 T00940017
Observed Flight Rules
Dec-16 @ 22:53 UTC
(17 minutes ago)
VFR
Wind Visibility
350° at 6 knots 10 miles
Clouds
  • Clear skies
Temperature Dewpoint
9°C / 48°F 2°C / 36°F
Humidity Altimeter Pressure
62% 30.29" Hg 1026.5 hPa